KBIL/BIL METAR and TAF weather

Enter ICAO airport designator
Station Type Date Time Source
KBIL METAR 2021/01/22 05:53 UTC NOAA

KBIL 220553Z 06004KT 10SM BKN070 OVC090 M03/M07 A3006 RMK AO2 SNE49 SLP217 P0000 60000 T10331067 11017 21033 51006


Station Type Date Time Source
KBIL Decoded METAR 2021/01/22 05:53 UTC NOAA

LOGAN INTERNATIONAL AIRPORT, MT, United States (KBIL) 45-49N 108-33W 1091M
Jan 22, 2021 - 12:53 AM EST / 2021.01.22 0553 UTC
Wind: from the ENE (060 degrees) at 5 MPH (4 KT):0
Visibility: 10 mile(s):0
Sky conditions: overcast
Precipitation last hour: A trace
Temperature: 26.1 F (-3.3 C)
Windchill: 19 F (-7 C):1
Dew Point: 19.9 F (-6.7 C)
Relative Humidity: 77%
Pressure (altimeter): 30.06 in. Hg (1017 hPa)
Pressure tendency: 0.02 inches (0.6 hPa) higher than three hours ago
ob: KBIL 220553Z 06004KT 10SM BKN070 OVC090 M03/M07 A3006 RMK AO2 SNE49 SLP217 P0000 60000 T10331067 11017 21033 51006
cycle: 6

Station Type Date Time Source
KBIL TAF 2021/01/22 06:36 UTC NOAA

TAF KBIL 220533Z 2206/2306 06006KT 6SM -SN FEW020 BKN035 OVC060
TEMPO 2206/2209 3SM -SN BR BKN020
FM221000 VRB05KT P6SM VCSH FEW002 SCT020 OVC040
FM221700 11007KT P6SM BKN040 OVC070
FM222300 14006KT P6SM SCT080 BKN150

Example: see airport list